Clarkston, MI

11:03 PM EST on December 20, 2014 (GMT -0500)
Troy | Change Station
CLOSE
Current Station
Airport
Location: Troy,
Elevation: 728 ft
Nearby Weather Stations

Elev 728 ft 42.54 °N, 83.18 °W | Updated 8 minutes ago

Overcast
Overcast
32 °F
Feels Like 32 °F
N
0
Wind Variable Wind from North

Today
High -- | Low -- °F
--% Chance of Precip.
Yesterday
High -- | Low -- °F
Precip. -- in
8:00 AM 5:02 PM
Waning Crescent, 1% visible
Pressure 30.30 in
Visibility 10.0 miles
Clouds Overcast 2800 ft
Dew Point 21 °F
Humidity 64%
Rainfall 0.00 in
Snow Depth Not available.
UV 0 out of 12
Pollen .10 out of 12
Air Quality Not available.
Flu Activity Not available.
METAR KVLL 210355Z AUTO 00000KT 10SM OVC028 00/M06 A3030 RMK AO2 T00001061

More Conditions Fewer Conditions

Pressure 30.30 in
Visibility 10.0 miles
Clouds Overcast 2800 ft
Dew Point 21 °F
Humidity 64%
Rainfall 0.00 in
Snow Depth Not available.
UV 0 out of 12
Pollen .10 out of 12
Air Quality Not available.
Flu Activity Not available.
METAR KVLL 210355Z AUTO 00000KT 10SM OVC028 00/M06 A3030 RMK AO2 T00001061

More Conditions Fewer Conditions

10-Day Weather Forecast

Almanac

Astronomy

Dec. 20, 2014 Rise Set
Actual Time
Civil Twilight
Nautical Twilight
Astronomical Twilight
Moon
Length of Visible Light
Length of Day
Tomorrow will be .
, % of the Moon is Illuminated

Today's Extremes

State Highs State Lows

Community

WunderPhotos

Upload Photos

1,779,357 photos uploaded!

WunderBlogs® & News

Nearby

Air Quality

  Air Quality AQ Index Pollutant
Not available.

Snow Depth

Station Depth Elevation

Earthquake Activity

City Distance Mag. Time & Date
Minimum magnitude displayed is 2.5.

Coastal Water Temperatures

Place Temperature

Nearby Weather Stations